createdAt,value
2022-09-15T00:00:25.199Z,98572.50
2022-09-15T00:01:27.437Z,98592.00
2022-09-15T00:02:29.178Z,98589.06
2022-09-15T00:03:30.926Z,98589.88
2022-09-15T00:04:32.680Z,98587.47
2022-09-15T00:05:34.367Z,98585.06
2022-09-15T00:06:36.646Z,98582.66
2022-09-15T00:07:38.603Z,98574.38
2022-09-15T00:08:40.905Z,98594.41
2022-09-15T00:09:42.596Z,98596.03
2022-09-15T00:10:50.122Z,98586.69
2022-09-15T00:11:51.983Z,98601.13
2022-09-15T00:12:54.052Z,98600.34
2022-09-15T00:13:57.796Z,98600.03
2022-09-15T00:14:59.944Z,98563.44
2022-09-15T00:16:02.052Z,98579.72
2022-09-15T00:17:03.804Z,98592.31
2022-09-15T00:18:06.492Z,98587.22
2022-09-15T00:19:08.284Z,98597.66
2022-09-15T00:20:10.543Z,98587.50
2022-09-15T00:21:16.433Z,98589.06
2022-09-15T00:22:19.953Z,98599.28
2022-09-15T00:23:21.927Z,98588.59
2022-09-15T00:24:23.652Z,98597.16
2022-09-15T00:25:25.332Z,98601.97
2022-09-15T00:26:28.867Z,98600.13
2022-09-15T00:27:32.069Z,98589.41
2022-09-15T00:28:34.947Z,98593.94
2022-09-15T00:29:36.729Z,98595.03
2022-09-15T00:30:47.098Z,98599.81
2022-09-15T00:31:48.874Z,98594.47
2022-09-15T00:32:50.628Z,98579.78
2022-09-15T00:33:55.918Z,98595.81
2022-09-15T00:34:57.769Z,98596.34
2022-09-15T00:36:03.714Z,98574.69
2022-09-15T00:37:05.781Z,98587.25
2022-09-15T00:38:09.201Z,98588.88
2022-09-15T00:39:10.863Z,98589.66
2022-09-15T00:40:12.642Z,98576.56
2022-09-15T00:41:17.204Z,98595.53
2022-09-15T00:42:21.427Z,98592.59
2022-09-15T00:43:46.272Z,98589.66
2022-09-15T00:44:55.958Z,98588.03
2022-09-15T00:45:57.703Z,98576.28
2022-09-15T00:47:18.371Z,98564.78
2022-09-15T00:48:22.733Z,98581.13
2022-09-15T00:49:33.937Z,98581.91
2022-09-15T00:50:37.753Z,98574.16
2022-09-15T00:51:54.765Z,98573.06
2022-09-15T00:52:59.538Z,98542.31
2022-09-15T00:54:04.878Z,98557.28
2022-09-15T00:55:11.951Z,98568.81
2022-09-15T00:56:15.809Z,98569.31
2022-09-15T00:57:42.982Z,98562.38
2022-09-15T00:58:57.599Z,98569.31
2022-09-15T01:00:00.697Z,98562.09
2022-09-15T01:01:07.627Z,98575.47
2022-09-15T01:02:23.659Z,98551.13
2022-09-15T01:03:27.333Z,98580.81
2022-09-15T01:04:29.151Z,98576.28
2022-09-15T01:05:46.514Z,98553.78
2022-09-15T01:06:54.231Z,98569.00
2022-09-15T01:08:11.283Z,98551.66
2022-09-15T01:09:24.244Z,98565.06
2022-09-15T01:10:31.462Z,98542.06
2022-09-15T01:11:33.802Z,98561.59
2022-09-15T01:12:35.945Z,98549.81
2022-09-15T01:13:37.638Z,98564.00
2022-09-15T01:14:39.324Z,98563.72
2022-09-15T01:17:47.833Z,98558.66
2022-09-15T01:19:40.424Z,98556.47
2022-09-15T01:21:12.958Z,98565.31
2022-09-15T01:22:41.938Z,98557.03
2022-09-15T01:24:16.153Z,98552.75
2022-09-15T01:25:24.024Z,98551.41
2022-09-15T01:26:44.301Z,98555.16
2022-09-15T01:28:04.484Z,98553.28
2022-09-15T01:29:24.856Z,98555.69
2022-09-15T01:30:27.149Z,98548.47
2022-09-15T01:31:59.822Z,98555.41
2022-09-15T01:33:10.112Z,98554.34
2022-09-15T01:34:18.186Z,98550.06
2022-09-15T01:35:33.724Z,98544.19
2022-09-15T01:36:47.242Z,98548.72
2022-09-15T01:38:27.402Z,98543.91
2022-09-15T01:39:35.762Z,98530.81
2022-09-15T01:40:44.939Z,98549.25
2022-09-15T01:42:16.919Z,98548.22
2022-09-15T01:43:22.095Z,98548.44
2022-09-15T01:44:29.365Z,98548.44
2022-09-15T01:45:34.022Z,98547.94
2022-09-15T01:46:48.765Z,98552.22
2022-09-15T01:47:54.294Z,98552.75
2022-09-15T01:48:59.518Z,98550.88
2022-09-15T01:50:20.685Z,98554.34
2022-09-15T01:51:25.817Z,98535.63
2022-09-15T01:52:29.228Z,98514.81
2022-09-15T01:53:30.926Z,98560.81
2022-09-15T01:54:42.612Z,98551.69
2022-09-15T01:55:54.450Z,98550.09
2022-09-15T01:56:57.319Z,98551.97
2022-09-15T01:57:59.741Z,98555.44
2022-09-15T01:59:01.495Z,98553.84
2022-09-15T02:00:04.429Z,98561.31
2022-09-15T02:01:14.989Z,98562.13
2022-09-15T02:02:39.558Z,98551.72
2022-09-15T02:03:58.997Z,98564.53
2022-09-15T02:05:16.641Z,98560.78
2022-09-15T02:06:29.798Z,98567.75
2022-09-15T02:07:51.077Z,98555.44
2022-09-15T02:08:58.934Z,98567.75
2022-09-15T02:10:12.551Z,98563.72
2022-09-15T02:11:20.452Z,98569.34
2022-09-15T02:12:34.044Z,98557.59
2022-09-15T02:13:49.085Z,98555.66
2022-09-15T02:15:08.327Z,98561.81
2022-09-15T02:16:20.178Z,98562.91
2022-09-15T02:17:24.063Z,98563.44
2022-09-15T02:18:34.915Z,98557.53
2022-09-15T02:19:41.813Z,98558.31
2022-09-15T02:20:48.670Z,98559.38
2022-09-15T02:21:57.878Z,98552.44
2022-09-15T02:23:08.327Z,98568.22
2022-09-15T02:24:18.792Z,98553.25
2022-09-15T02:25:28.793Z,98563.41
2022-09-15T02:26:33.620Z,98569.56
2022-09-15T02:27:46.583Z,98540.13
2022-09-15T02:28:50.713Z,98561.56
2022-09-15T02:29:56.355Z,98563.94
2022-09-15T02:30:59.455Z,98553.78
2022-09-15T02:32:07.056Z,98554.31
2022-09-15T02:33:14.597Z,98544.97
2022-09-15T02:34:21.266Z,98558.31
2022-09-15T02:35:25.352Z,98558.88
2022-09-15T02:36:29.332Z,98550.03
2022-09-15T02:37:31.215Z,98565.84
2022-09-15T02:38:39.597Z,98561.28
2022-09-15T02:39:46.287Z,98559.13
2022-09-15T02:40:48.399Z,98556.47
2022-09-15T02:41:50.120Z,98563.69
2022-09-15T02:43:03.388Z,98564.47
2022-09-15T02:44:05.096Z,98561.56
2022-09-15T02:45:07.406Z,98561.00
2022-09-15T02:46:09.190Z,98568.78
2022-09-15T02:47:11.227Z,98561.56
2022-09-15T02:48:13.181Z,98565.56
2022-09-15T02:49:15.124Z,98566.09
2022-09-15T02:50:17.996Z,98538.28
2022-09-15T02:51:19.877Z,98564.22
2022-09-15T02:52:21.878Z,98550.56
2022-09-15T02:53:23.765Z,98558.59
2022-09-15T02:54:25.470Z,98551.13
2022-09-15T02:55:30.239Z,98544.44
2022-09-15T02:56:31.950Z,98562.88
2022-09-15T02:57:33.640Z,98565.53
2022-09-15T02:58:35.740Z,98565.28
2022-09-15T02:59:56.514Z,98568.75
2022-09-15T03:00:58.302Z,98564.75
2022-09-15T03:02:00.486Z,98551.09
2022-09-15T03:03:02.227Z,98561.81
2022-09-15T03:04:04.197Z,98558.31
2022-09-15T03:05:07.622Z,98550.03
2022-09-15T03:06:20.079Z,98538.00
2022-09-15T03:07:21.819Z,98547.91
2022-09-15T03:08:23.641Z,98550.56
2022-09-15T03:09:25.361Z,98544.94
2022-09-15T03:10:27.108Z,98545.22
2022-09-15T03:11:30.342Z,98547.88
2022-09-15T03:12:32.405Z,98527.03
2022-09-15T03:13:34.149Z,98551.63
2022-09-15T03:14:36.108Z,98553.19
2022-09-15T03:15:37.796Z,98534.44
2022-09-15T03:16:40.763Z,98563.06
2022-09-15T03:17:44.867Z,98559.88
2022-09-15T03:18:47.007Z,98561.78
2022-09-15T03:19:49.868Z,98561.25
2022-09-15T03:20:56.857Z,98558.28
2022-09-15T03:21:58.540Z,98558.84
2022-09-15T03:23:00.186Z,98550.53
2022-09-15T03:24:02.203Z,98562.31
2022-09-15T03:25:05.660Z,98558.03
2022-09-15T03:26:08.960Z,98548.94
2022-09-15T03:27:10.658Z,98562.59
2022-09-15T03:28:12.437Z,98554.53
2022-09-15T03:29:14.418Z,98554.81
2022-09-15T03:30:16.154Z,98561.78
2022-09-15T03:31:17.937Z,98562.06
2022-09-15T03:32:20.061Z,98553.22
2022-09-15T03:33:22.864Z,98558.59
2022-09-15T03:34:24.544Z,98556.16
2022-09-15T03:35:26.229Z,98555.38
2022-09-15T03:36:27.905Z,98556.16
2022-09-15T03:37:29.657Z,98550.00
2022-09-15T03:38:31.707Z,98561.78
2022-09-15T03:39:33.825Z,98566.84
2022-09-15T03:40:36.234Z,98555.88
2022-09-15T03:41:37.947Z,98551.09
2022-09-15T03:42:39.661Z,98554.84
2022-09-15T03:43:41.724Z,98556.94
2022-09-15T03:44:43.449Z,98551.03
2022-09-15T03:45:45.162Z,98551.78
2022-09-15T03:46:46.912Z,98541.88
2022-09-15T03:47:48.836Z,98542.66
2022-09-15T03:48:50.770Z,98545.84
2022-09-15T03:49:52.449Z,98540.22
2022-09-15T03:50:54.314Z,98522.00
2022-09-15T03:51:57.493Z,98540.00
2022-09-15T03:53:00.900Z,98522.06
2022-09-15T03:54:03.249Z,98552.31
2022-09-15T03:55:05.270Z,98544.59
2022-09-15T03:56:09.062Z,98549.94
2022-09-15T03:57:11.441Z,98549.41
2022-09-15T03:58:13.831Z,98552.63
2022-09-15T03:59:19.021Z,98546.50
2022-09-15T04:00:21.858Z,98552.09
2022-09-15T04:01:24.278Z,98545.41
2022-09-15T04:02:26.147Z,98540.56
2022-09-15T04:03:27.887Z,98548.31
2022-09-15T04:04:29.742Z,98540.56
2022-09-15T04:05:31.449Z,98537.09
2022-09-15T04:06:33.817Z,98541.91
2022-09-15T04:07:35.483Z,98530.13
2022-09-15T04:08:37.528Z,98542.44
2022-09-15T04:09:39.237Z,98540.31
2022-09-15T04:10:41.370Z,98550.44
2022-09-15T04:11:43.215Z,98543.50
2022-09-15T04:12:44.878Z,98548.59
2022-09-15T04:13:47.355Z,98524.25
2022-09-15T04:14:50.094Z,98552.09
2022-09-15T04:16:03.300Z,98556.09
2022-09-15T04:17:05.105Z,98559.59
2022-09-15T04:18:07.064Z,98564.13
2022-09-15T04:19:09.039Z,98562.81
2022-09-15T04:20:12.465Z,98568.41
2022-09-15T04:21:17.638Z,98566.28
2022-09-15T04:22:20.464Z,98571.91
2022-09-15T04:23:22.125Z,98553.69
2022-09-15T04:24:23.794Z,98577.25
2022-09-15T04:25:27.981Z,98576.72
2022-09-15T04:26:32.503Z,98574.34
2022-09-15T04:27:36.055Z,98582.09
2022-09-15T04:28:38.478Z,98570.88
2022-09-15T04:29:40.171Z,98574.34
2022-09-15T04:30:42.030Z,98558.03
2022-09-15T04:31:43.842Z,98565.53
2022-09-15T04:32:45.819Z,98578.88
2022-09-15T04:33:48.073Z,98569.84
2022-09-15T04:34:49.771Z,98574.38
2022-09-15T04:36:02.045Z,98579.19
2022-09-15T04:37:04.006Z,98589.63
2022-09-15T04:38:06.446Z,98580.53
2022-09-15T04:39:08.323Z,98582.19
2022-09-15T04:40:10.593Z,98591.25
2022-09-15T04:41:14.227Z,98589.41
2022-09-15T04:42:16.223Z,98594.47
2022-09-15T04:43:17.964Z,98595.56
2022-09-15T04:44:19.639Z,98586.44
2022-09-15T04:45:21.647Z,98598.22
2022-09-15T04:46:23.374Z,98608.13
2022-09-15T04:47:25.170Z,98595.81
2022-09-15T04:48:27.179Z,98595.78
2022-09-15T04:49:29.111Z,98607.81
2022-09-15T04:50:32.397Z,98594.16
2022-09-15T04:51:34.090Z,98606.19
2022-09-15T04:52:35.883Z,98614.47
2022-09-15T04:53:37.992Z,98621.66
2022-09-15T04:54:40.079Z,98617.06
2022-09-15T04:55:42.427Z,98607.94
2022-09-15T04:56:44.076Z,98599.06
2022-09-15T04:57:46.831Z,98592.06
2022-09-15T04:58:51.946Z,98611.53
2022-09-15T04:59:53.603Z,98612.78
2022-09-15T05:00:55.408Z,98610.00
2022-09-15T05:01:57.420Z,98605.03
2022-09-15T05:03:00.160Z,98601.19
2022-09-15T05:04:06.449Z,98604.31
2022-09-15T05:05:08.447Z,98602.03
2022-09-15T05:06:12.504Z,98592.28
2022-09-15T05:07:14.545Z,98596.88
2022-09-15T05:08:16.924Z,98610.31
2022-09-15T05:09:18.638Z,98603.06
2022-09-15T05:10:20.694Z,98606.06
2022-09-15T05:11:23.922Z,98600.84
2022-09-15T05:12:25.561Z,98591.16
2022-09-15T05:13:27.738Z,98595.72
2022-09-15T05:14:30.229Z,98596.78
2022-09-15T05:15:31.902Z,98595.84
2022-09-15T05:16:34.993Z,98587.50
2022-09-15T05:17:36.987Z,98595.31
2022-09-15T05:18:40.128Z,98597.50
2022-09-15T05:19:41.954Z,98596.28
2022-09-15T05:20:43.616Z,98593.66
2022-09-15T05:21:45.300Z,98590.19
2022-09-15T05:22:47.045Z,98593.22
2022-09-15T05:23:50.458Z,98593.84
2022-09-15T05:24:52.219Z,98588.56
2022-09-15T05:25:58.334Z,98581.81
2022-09-15T05:27:00.261Z,98591.09
2022-09-15T05:28:02.541Z,98584.81
2022-09-15T05:29:04.641Z,98593.00
2022-09-15T05:30:35.209Z,98595.91
2022-09-15T05:31:32.481Z,98604.38
2022-09-15T05:32:34.211Z,98606.34
2022-09-15T05:33:36.289Z,98601.59
2022-09-15T05:34:37.934Z,98598.53
2022-09-15T05:35:39.657Z,98608.56
2022-09-15T05:36:41.577Z,98598.06
2022-09-15T05:37:45.348Z,98598.69
2022-09-15T05:38:47.502Z,98600.25
2022-09-15T05:39:49.376Z,98591.59
2022-09-15T05:40:51.440Z,98588.53
2022-09-15T05:41:53.133Z,98599.31
2022-09-15T05:42:54.865Z,98592.91
2022-09-15T05:43:57.996Z,98597.75
2022-09-15T05:44:59.646Z,98591.31
2022-09-15T05:46:02.530Z,98595.25
2022-09-15T05:47:04.663Z,98600.66
2022-09-15T05:48:06.362Z,98594.50
2022-09-15T05:49:08.880Z,98589.13
2022-09-15T05:50:11.294Z,98586.59
2022-09-15T05:51:14.557Z,98582.94
2022-09-15T05:52:16.238Z,98583.47
2022-09-15T05:53:18.471Z,98576.94
2022-09-15T05:54:20.321Z,98578.09
2022-09-15T05:55:22.486Z,98571.88
2022-09-15T05:56:24.773Z,98564.31
2022-09-15T05:57:27.308Z,98579.66
2022-09-15T05:58:30.632Z,98572.06
2022-09-15T05:59:33.482Z,98572.97
2022-09-15T06:00:35.428Z,98572.72
2022-09-15T06:01:37.123Z,98553.47
2022-09-15T06:02:38.888Z,98561.97
2022-09-15T06:03:41.070Z,98562.75
2022-09-15T06:04:42.757Z,98560.50
2022-09-15T06:05:44.501Z,98563.00
2022-09-15T06:06:46.489Z,98564.09
2022-09-15T06:07:48.171Z,98561.34
2022-09-15T06:08:58.085Z,98568.91
2022-09-15T06:10:00.361Z,98574.16
2022-09-15T06:11:07.482Z,98569.25
2022-09-15T06:12:09.133Z,98572.28
2022-09-15T06:13:10.825Z,98573.44
2022-09-15T06:14:13.653Z,98580.69
2022-09-15T06:15:15.469Z,98578.50
2022-09-15T06:16:22.844Z,98582.81
2022-09-15T06:17:24.549Z,98585.47
2022-09-15T06:18:26.212Z,98575.69
2022-09-15T06:19:27.893Z,98579.66
2022-09-15T06:20:29.547Z,98580.97
2022-09-15T06:21:32.593Z,98581.47
2022-09-15T06:22:34.491Z,98585.63
2022-09-15T06:23:37.155Z,98576.44
2022-09-15T06:24:38.999Z,98585.84
2022-09-15T06:25:40.648Z,98576.34
2022-09-15T06:26:42.357Z,98572.38
2022-09-15T06:27:44.149Z,98580.03
2022-09-15T06:28:51.894Z,98576.44
2022-09-15T06:29:53.582Z,98574.69
2022-09-15T06:30:55.274Z,98576.88
2022-09-15T06:32:02.701Z,98564.19
2022-09-15T06:33:08.136Z,98569.53
2022-09-15T06:34:29.588Z,98563.09
2022-09-15T06:35:31.289Z,98569.59
2022-09-15T06:36:33.506Z,98570.81
2022-09-15T06:37:35.246Z,98563.13
2022-09-15T06:38:38.379Z,98560.66
2022-09-15T06:39:40.280Z,98569.44
2022-09-15T06:40:41.941Z,98559.59
2022-09-15T06:42:01.332Z,98561.69
2022-09-15T06:43:04.379Z,98561.09
2022-09-15T06:44:06.071Z,98542.63
2022-09-15T06:45:08.236Z,98552.06
2022-09-15T06:46:11.183Z,98559.25
2022-09-15T06:47:15.795Z,98562.78
2022-09-15T06:48:24.559Z,98559.84
2022-09-15T06:49:27.090Z,98554.97
2022-09-15T06:50:29.259Z,98562.72
2022-09-15T06:51:35.638Z,98561.50
2022-09-15T06:52:37.319Z,98555.81
2022-09-15T06:53:39.984Z,98547.59
2022-09-15T06:54:41.641Z,98552.41
2022-09-15T06:55:43.296Z,98562.09
2022-09-15T06:56:45.437Z,98546.59
2022-09-15T06:57:47.334Z,98554.94
2022-09-15T06:58:49.476Z,98548.34
2022-09-15T06:59:51.351Z,98554.56
2022-09-15T07:00:53.047Z,98545.47
2022-09-15T07:01:55.390Z,98537.66
2022-09-15T07:02:57.272Z,98542.34
2022-09-15T07:04:01.211Z,98540.31
2022-09-15T07:05:03.624Z,98531.38
2022-09-15T07:06:06.924Z,98538.31
2022-09-15T07:07:08.708Z,98543.97
2022-09-15T07:08:10.386Z,98540.94
2022-09-15T07:09:12.672Z,98549.34
2022-09-15T07:10:14.365Z,98545.06
2022-09-15T07:11:17.493Z,98541.97
2022-09-15T07:12:19.127Z,98554.44
2022-09-15T07:13:21.698Z,98546.34
2022-09-15T07:14:23.381Z,98546.84
2022-09-15T07:15:26.093Z,98548.19
2022-09-15T07:16:28.368Z,98546.44
2022-09-15T07:17:30.342Z,98553.19
2022-09-15T07:18:32.834Z,98545.69
2022-09-15T07:19:34.771Z,98525.59
2022-09-15T07:20:39.151Z,98532.03
2022-09-15T07:21:41.055Z,98543.31
2022-09-15T07:22:44.264Z,98535.91
2022-09-15T07:23:47.393Z,98538.31
2022-09-15T07:24:49.126Z,98553.19
2022-09-15T07:25:50.822Z,98546.06
2022-09-15T07:26:52.544Z,98515.00
2022-09-15T07:27:54.180Z,98550.50
2022-09-15T07:29:04.823Z,98557.94
2022-09-15T07:30:08.721Z,98553.69
2022-09-15T07:31:13.504Z,98553.38
2022-09-15T07:32:15.276Z,98543.25
2022-09-15T07:33:17.002Z,98534.59
2022-09-15T07:34:18.812Z,98543.25
2022-09-15T07:35:21.902Z,98535.31
2022-09-15T07:36:23.578Z,98536.97
2022-09-15T07:37:25.288Z,98533.81
2022-09-15T07:38:27.238Z,98529.13
2022-09-15T07:39:29.355Z,98533.22
2022-09-15T07:40:32.299Z,98524.41
2022-09-15T07:41:34.351Z,98506.81
2022-09-15T07:42:36.352Z,98517.13
2022-09-15T07:43:38.850Z,98516.50
2022-09-15T07:44:40.758Z,98515.88
2022-09-15T07:45:42.987Z,98525.69
2022-09-15T07:46:44.938Z,98512.97
2022-09-15T07:47:46.667Z,98525.31
2022-09-15T07:48:53.238Z,98527.28
2022-09-15T07:49:55.476Z,98532.63
2022-09-15T07:50:57.293Z,98537.97
2022-09-15T07:51:58.977Z,98533.88
2022-09-15T07:53:00.934Z,98538.81
2022-09-15T07:54:02.733Z,98541.94
2022-09-15T07:55:04.969Z,98542.28
2022-09-15T07:56:07.191Z,98540.84
2022-09-15T07:57:08.890Z,98546.81
2022-09-15T07:58:10.636Z,98548.44
2022-09-15T07:59:12.647Z,98559.41
2022-09-15T08:00:15.692Z,98560.53
2022-09-15T08:01:18.942Z,98564.97
2022-09-15T08:02:21.641Z,98547.66
2022-09-15T08:03:23.332Z,98563.44
2022-09-15T08:04:25.305Z,98549.28
2022-09-15T08:05:28.482Z,98546.13
2022-09-15T08:06:30.429Z,98519.38
2022-09-15T08:07:32.085Z,98545.69
2022-09-15T08:08:33.764Z,98543.31
2022-09-15T08:09:37.446Z,98543.69
2022-09-15T08:10:41.335Z,98543.34
2022-09-15T08:11:43.950Z,98544.56
2022-09-15T08:12:45.654Z,98549.28
2022-09-15T08:13:52.517Z,98542.59
2022-09-15T08:14:54.484Z,98544.50
2022-09-15T08:15:56.219Z,98550.44
2022-09-15T08:17:01.217Z,98541.31
2022-09-15T08:18:03.816Z,98540.09
2022-09-15T08:19:05.515Z,98531.88
2022-09-15T08:20:07.523Z,98535.91
2022-09-15T08:21:12.479Z,98539.88
2022-09-15T08:22:14.203Z,98550.09
2022-09-15T08:23:15.912Z,98545.75
2022-09-15T08:24:17.900Z,98538.25
2022-09-15T08:25:19.897Z,98543.38
2022-09-15T08:26:22.386Z,98529.59
2022-09-15T08:27:24.078Z,98537.09
2022-09-15T08:28:26.787Z,98540.22
2022-09-15T08:29:29.376Z,98532.75
2022-09-15T08:30:31.341Z,98531.97
2022-09-15T08:31:33.383Z,98539.44
2022-09-15T08:32:35.139Z,98534.66
2022-09-15T08:33:38.965Z,98535.78
2022-09-15T08:34:43.561Z,98535.69
2022-09-15T08:35:45.240Z,98539.19
2022-09-15T08:36:46.934Z,98541.13
2022-09-15T08:37:48.877Z,98542.69
2022-09-15T08:38:50.571Z,98532.31
2022-09-15T08:39:52.477Z,98538.69
2022-09-15T08:41:00.606Z,98528.88
2022-09-15T08:42:03.073Z,98533.66
2022-09-15T08:43:21.702Z,98537.56
2022-09-15T08:44:32.063Z,98535.50
2022-09-15T08:46:00.725Z,98534.28
2022-09-15T08:47:08.328Z,98552.41
2022-09-15T08:48:15.917Z,98552.88
2022-09-15T08:49:47.447Z,98547.44
2022-09-15T08:50:50.382Z,98553.69
2022-09-15T08:51:53.317Z,98551.69
2022-09-15T08:53:06.966Z,98545.00
2022-09-15T08:54:18.734Z,98544.53
2022-09-15T08:55:29.361Z,98549.19
2022-09-15T08:56:31.352Z,98544.63
2022-09-15T08:57:33.114Z,98543.47
2022-09-15T08:58:37.871Z,98543.94
2022-09-15T08:59:40.123Z,98539.25
2022-09-15T09:00:42.729Z,98522.28
2022-09-15T09:01:44.520Z,98533.59
2022-09-15T09:03:15.708Z,98542.28
2022-09-15T09:04:47.917Z,98542.25
2022-09-15T09:06:44.982Z,98530.25
2022-09-15T09:07:59.862Z,98533.19
2022-09-15T09:09:07.184Z,98539.50
2022-09-15T09:10:36.274Z,98539.97
2022-09-15T09:12:03.670Z,98535.94
2022-09-15T09:13:44.158Z,98538.84
2022-09-15T09:15:10.875Z,98537.88
2022-09-15T09:16:36.356Z,98523.97
2022-09-15T09:17:38.186Z,98525.81
2022-09-15T09:18:48.796Z,98530.06
2022-09-15T09:19:57.910Z,98529.25
2022-09-15T09:21:05.618Z,98520.47
2022-09-15T09:22:15.841Z,98523.66
2022-09-15T09:23:24.156Z,98521.13
2022-09-15T09:24:42.663Z,98512.53
2022-09-15T09:25:45.149Z,98509.09
2022-09-15T09:26:51.346Z,98507.97
2022-09-15T09:27:54.245Z,98512.34
2022-09-15T09:28:59.749Z,98499.16
2022-09-15T09:30:04.026Z,98506.38
2022-09-15T09:31:08.403Z,98510.91
2022-09-15T09:32:24.637Z,98491.84
2022-09-15T09:33:38.801Z,98497.56
2022-09-15T09:34:54.438Z,98502.06
2022-09-15T09:35:59.980Z,98501.03
2022-09-15T09:37:10.807Z,98494.28
2022-09-15T09:38:31.478Z,98496.59
2022-09-15T09:39:33.575Z,98499.06
2022-09-15T09:40:41.253Z,98485.47
2022-09-15T09:41:43.926Z,98492.72
2022-09-15T09:42:46.060Z,98489.00
2022-09-15T09:43:49.393Z,98487.66
2022-09-15T09:44:51.619Z,98482.28
2022-09-15T09:45:53.785Z,98481.44
2022-09-15T09:46:55.906Z,98461.59
2022-09-15T09:48:15.139Z,98483.41
2022-09-15T09:49:24.472Z,98462.66
2022-09-15T09:50:32.546Z,98474.94
2022-09-15T09:51:34.233Z,98479.44
2022-09-15T09:52:38.386Z,98467.38
2022-09-15T09:53:40.213Z,98472.28
2022-09-15T09:54:42.441Z,98463.19
2022-09-15T09:55:45.977Z,98473.47
2022-09-15T09:56:52.497Z,98467.59
2022-09-15T09:58:11.098Z,98453.75
2022-09-15T09:59:45.121Z,98463.53
2022-09-15T10:00:47.487Z,98453.16
2022-09-15T10:02:11.412Z,98457.03
2022-09-15T10:03:17.046Z,98462.78
2022-09-15T10:04:19.644Z,98453.75
2022-09-15T10:05:21.605Z,98439.09
2022-09-15T10:06:23.314Z,98447.06
2022-09-15T10:07:26.826Z,98445.31
2022-09-15T10:08:28.597Z,98445.31
2022-09-15T10:09:33.378Z,98442.31
2022-09-15T10:10:35.758Z,98434.84
2022-09-15T10:11:59.170Z,98441.75
2022-09-15T10:13:03.615Z,98443.16
2022-09-15T10:14:05.556Z,98443.78
2022-09-15T10:15:21.201Z,98429.31
2022-09-15T10:16:23.112Z,98435.94
2022-09-15T10:17:47.635Z,98425.22
2022-09-15T10:18:54.175Z,98428.59
2022-09-15T10:19:58.492Z,98423.69
2022-09-15T10:21:03.319Z,98422.34
2022-09-15T10:22:05.210Z,98419.22
2022-09-15T10:23:25.070Z,98416.28
2022-09-15T10:24:34.608Z,98427.00
2022-09-15T10:25:58.612Z,98419.81
2022-09-15T10:27:20.288Z,98419.59
2022-09-15T10:28:25.948Z,98406.16
2022-09-15T10:29:36.737Z,98411.47
2022-09-15T10:30:38.775Z,98407.06
2022-09-15T10:31:41.792Z,98400.53
2022-09-15T10:32:43.625Z,98410.47
2022-09-15T10:33:49.256Z,98410.69
2022-09-15T10:35:03.307Z,98403.34
2022-09-15T10:36:07.190Z,98394.84
2022-09-15T10:37:18.809Z,98390.13
2022-09-15T10:38:31.442Z,98387.50
2022-09-15T10:39:39.329Z,98388.88
2022-09-15T10:41:03.540Z,98389.03
2022-09-15T10:42:21.566Z,98394.84
2022-09-15T10:43:35.270Z,98379.78
2022-09-15T10:44:36.938Z,98381.94
2022-09-15T10:45:40.315Z,98375.81
2022-09-15T10:46:42.021Z,98383.63
2022-09-15T10:47:57.649Z,98378.38
2022-09-15T10:49:37.656Z,98381.06
2022-09-15T10:50:51.392Z,98376.66
2022-09-15T10:52:37.366Z,98390.19
2022-09-15T10:54:05.131Z,98384.56
2022-09-15T10:55:42.553Z,98384.75
2022-09-15T10:56:52.373Z,98387.00
2022-09-15T10:58:06.344Z,98383.97
2022-09-15T10:59:33.948Z,98390.88
2022-09-15T11:01:17.952Z,98389.09
2022-09-15T11:02:36.319Z,98385.16
2022-09-15T11:04:26.410Z,98385.03
2022-09-15T11:05:46.701Z,98386.13
2022-09-15T11:06:57.710Z,98370.13
2022-09-15T11:08:17.004Z,98383.88
2022-09-15T11:09:30.456Z,98379.91
2022-09-15T11:10:45.933Z,98373.00
2022-09-15T11:12:06.127Z,98379.44
2022-09-15T11:13:14.840Z,98372.13
2022-09-15T11:14:38.508Z,98379.38
2022-09-15T11:15:59.614Z,98370.25
2022-09-15T11:17:15.946Z,98369.66
2022-09-15T11:18:39.115Z,98366.72
2022-09-15T11:20:07.854Z,98359.50
2022-09-15T11:21:25.657Z,98360.88
2022-09-15T11:22:35.802Z,98356.00
2022-09-15T11:23:47.001Z,98360.56
2022-09-15T11:25:10.728Z,98363.22
2022-09-15T11:26:30.595Z,98361.13
2022-09-15T11:27:40.120Z,98371.28
2022-09-15T11:29:00.739Z,98358.28
2022-09-15T11:30:18.976Z,98356.81
2022-09-15T11:31:27.470Z,98352.47
2022-09-15T11:32:41.637Z,98324.47
2022-09-15T11:33:53.226Z,98350.19
2022-09-15T11:35:16.505Z,98344.59
2022-09-15T11:36:40.783Z,98348.31
2022-09-15T11:37:50.824Z,98339.59
2022-09-15T11:38:59.684Z,98340.75
2022-09-15T11:40:16.249Z,98323.25
2022-09-15T11:41:47.426Z,98331.81
2022-09-15T11:42:51.901Z,98321.69
2022-09-15T11:44:21.086Z,98329.19
2022-09-15T11:45:28.146Z,98329.63
2022-09-15T11:46:57.570Z,98332.47
2022-09-15T11:48:18.700Z,98326.06
2022-09-15T11:49:25.117Z,98327.50
2022-09-15T11:50:34.394Z,98312.16
2022-09-15T11:51:50.856Z,98325.94
2022-09-15T11:52:55.781Z,98313.28
2022-09-15T11:54:13.790Z,98331.72
2022-09-15T11:55:26.593Z,98333.41
2022-09-15T11:56:36.696Z,98329.16
2022-09-15T11:58:08.235Z,98324.13
2022-09-15T11:59:20.094Z,98318.69
2022-09-15T12:00:21.752Z,98323.03
2022-09-15T12:01:30.064Z,98320.25
2022-09-15T12:02:53.662Z,98319.63
2022-09-15T12:04:02.862Z,98312.94
2022-09-15T12:05:17.695Z,98316.09
2022-09-15T12:06:47.481Z,98318.47
2022-09-15T12:07:58.449Z,98311.44
2022-09-15T12:09:03.968Z,98303.34
2022-09-15T12:10:14.836Z,98294.41
2022-09-15T12:11:22.481Z,98295.63
2022-09-15T12:12:28.037Z,98288.91
2022-09-15T12:13:31.877Z,98294.41
2022-09-15T12:14:45.446Z,98277.91
2022-09-15T12:15:48.705Z,98285.41
2022-09-15T12:16:51.917Z,98287.41
2022-09-15T12:18:46.754Z,98285.88
2022-09-15T12:20:00.534Z,98286.28
2022-09-15T12:21:12.758Z,98277.59
2022-09-15T12:22:26.673Z,98287.44
2022-09-15T12:23:41.323Z,98285.84
2022-09-15T12:24:53.412Z,98266.19
2022-09-15T12:26:09.171Z,98282.72
2022-09-15T12:27:17.137Z,98277.97
2022-09-15T12:28:21.696Z,98276.81
2022-09-15T12:29:26.600Z,98280.34
2022-09-15T12:30:39.278Z,98274.06
2022-09-15T12:31:41.739Z,98280.31
2022-09-15T12:32:43.440Z,98266.97
2022-09-15T12:34:15.914Z,98279.19
2022-09-15T12:35:17.781Z,98275.63
2022-09-15T12:36:37.032Z,98275.25
2022-09-15T12:37:53.419Z,98269.75
2022-09-15T12:38:55.554Z,98265.06
2022-09-15T12:39:58.388Z,98260.34
2022-09-15T12:41:00.566Z,98262.31
2022-09-15T12:42:13.345Z,98253.22
2022-09-15T12:43:23.108Z,98259.91
2022-09-15T12:44:40.724Z,98253.22
2022-09-15T12:45:53.701Z,98258.28
2022-09-15T12:46:58.464Z,98250.84
2022-09-15T12:48:07.916Z,98256.72
2022-09-15T12:49:17.894Z,98250.38
2022-09-15T12:50:19.624Z,98243.31
2022-09-15T12:51:24.446Z,98239.78
2022-09-15T12:52:26.823Z,98245.28
2022-09-15T12:54:45.428Z,98242.59
2022-09-15T12:55:53.403Z,98244.91
2022-09-15T12:56:57.172Z,98248.09
2022-09-15T12:58:08.627Z,98241.81
2022-09-15T12:59:15.181Z,98232.41
2022-09-15T13:00:29.521Z,98245.38
2022-09-15T13:01:37.989Z,98238.31
2022-09-15T13:02:48.100Z,98246.97
2022-09-15T13:03:49.789Z,98241.50
2022-09-15T13:04:57.725Z,98241.09
2022-09-15T13:06:15.115Z,98240.31
2022-09-15T13:07:17.236Z,98241.50
2022-09-15T13:08:24.640Z,98246.59
2022-09-15T13:09:28.643Z,98244.22
2022-09-15T13:10:37.213Z,98244.22